Aviation Digital Data Service (ADDS)

Output produced by METARs form (1818 UTC 19 April 2019)
found at http://www.aviationweather.gov/metar/data/
 
METAR text: FOOL 191800Z 24009KT 210V280 9000 TS SCT012 FEW018CB BKN030 29/26 Q1008 TEMPO 3000 TSRA
Conditions at: FOOL (LIBREVILLE/LEON , GA) observed 1800 UTC 19 April 2019
Temperature: 29.0°C (84°F)
Dewpoint: 26.0°C (79°F) [RH = 84%]
Pressure (altimeter): 29.76 inches Hg (1008.0 mb)
Winds: from the WSW (240 degrees) at 10 MPH (9 knots; 4.6 m/s)
Visibility: 6 miles ( 9 km)
Ceiling: 3000 feet AGL
Clouds: scattered clouds at 1200 feet AGL
few clouds at 1800 feet AGL
broken clouds at 3000 feet AGL
Weather: TS  (thunderstorm)

METAR text: FOOL 191730Z 25009KT 220V280 9999 TS SCT012 FEW018CB 29/26 Q1008 NOSIG
Conditions at: FOOL (LIBREVILLE/LEON , GA) observed 1730 UTC 19 April 2019
Temperature: 29.0°C (84°F)
Dewpoint: 26.0°C (79°F) [RH = 84%]
Pressure (altimeter): 29.76 inches Hg (1008.0 mb)
Winds: from the WSW (250 degrees) at 10 MPH (9 knots; 4.6 m/s)
Visibility: 6 or more miles (10+ km)
Ceiling: at least 12,000 feet AGL
Clouds: scattered clouds at 1200 feet AGL
few clouds at 1800 feet AGL
Weather: TS  (thunderstorm)

METAR text: FOOL 191700Z 24010KT 220V280 9999 SCT012 FEW018CB 29/26 Q1008 NOSIG
Conditions at: FOOL (LIBREVILLE/LEON , GA) observed 1700 UTC 19 April 2019
Temperature: 29.0°C (84°F)
Dewpoint: 26.0°C (79°F) [RH = 84%]
Pressure (altimeter): 29.76 inches Hg (1008.0 mb)
Winds: from the WSW (240 degrees) at 12 MPH (10 knots; 5.1 m/s)
Visibility: 6 or more miles (10+ km)
Ceiling: at least 12,000 feet AGL
Clouds: scattered clouds at 1200 feet AGL
few clouds at 1800 feet AGL
Weather: no significant weather observed at this time

METAR text: FOOL 191630Z 25008KT 220V280 9999 SCT012 FEW018CB 30/26 Q1008 NOSIG
Conditions at: FOOL (LIBREVILLE/LEON , GA) observed 1630 UTC 19 April 2019
Temperature: 30.0°C (86°F)
Dewpoint: 26.0°C (79°F) [RH = 79%]
Pressure (altimeter): 29.76 inches Hg (1008.0 mb)
Winds: from the WSW (250 degrees) at 9 MPH (8 knots; 4.1 m/s)
Visibility: 6 or more miles (10+ km)
Ceiling: at least 12,000 feet AGL
Clouds: scattered clouds at 1200 feet AGL
few clouds at 1800 feet AGL
Weather: no significant weather observed at this time

METAR text: FOOL 191600Z 25008KT 220V280 9999 SCT012 FEW018CB 29/26 Q1007 NOSIG
Conditions at: FOOL (LIBREVILLE/LEON , GA) observed 1600 UTC 19 April 2019
Temperature: 29.0°C (84°F)
Dewpoint: 26.0°C (79°F) [RH = 84%]
Pressure (altimeter): 29.73 inches Hg (1007.0 mb)
Winds: from the WSW (250 degrees) at 9 MPH (8 knots; 4.1 m/s)
Visibility: 6 or more miles (10+ km)
Ceiling: at least 12,000 feet AGL
Clouds: scattered clouds at 1200 feet AGL
few clouds at 1800 feet AGL
Weather: no significant weather observed at this time

METAR text: FOOL 191530Z 24009KT 210V270 9999 SCT014 FEW018CB 30/26 Q1007 NOSIG
Conditions at: FOOL (LIBREVILLE/LEON , GA) observed 1530 UTC 19 April 2019
Temperature: 30.0°C (86°F)
Dewpoint: 26.0°C (79°F) [RH = 79%]
Pressure (altimeter): 29.73 inches Hg (1007.0 mb)
Winds: from the WSW (240 degrees) at 10 MPH (9 knots; 4.6 m/s)
Visibility: 6 or more miles (10+ km)
Ceiling: at least 12,000 feet AGL
Clouds: scattered clouds at 1400 feet AGL
few clouds at 1800 feet AGL
Weather: no significant weather observed at this time

METAR text: FOOL 191500Z 24010KT 210V270 9999 SCT014 FEW018CB 30/26 Q1008 NOSIG
Conditions at: FOOL (LIBREVILLE/LEON , GA) observed 1500 UTC 19 April 2019
Temperature: 30.0°C (86°F)
Dewpoint: 26.0°C (79°F) [RH = 79%]
Pressure (altimeter): 29.76 inches Hg (1008.0 mb)
Winds: from the WSW (240 degrees) at 12 MPH (10 knots; 5.1 m/s)
Visibility: 6 or more miles (10+ km)
Ceiling: at least 12,000 feet AGL
Clouds: scattered clouds at 1400 feet AGL
few clouds at 1800 feet AGL
Weather: no significant weather observed at this time

METAR text: FOOL 191430Z 26006KT 240V310 9999 SCT013 FEW018CB 30/26 Q1008 NOSIG
Conditions at: FOOL (LIBREVILLE/LEON , GA) observed 1430 UTC 19 April 2019
Temperature: 30.0°C (86°F)
Dewpoint: 26.0°C (79°F) [RH = 79%]
Pressure (altimeter): 29.76 inches Hg (1008.0 mb)
Winds: from the W (260 degrees) at 7 MPH (6 knots; 3.1 m/s)
Visibility: 6 or more miles (10+ km)
Ceiling: at least 12,000 feet AGL
Clouds: scattered clouds at 1300 feet AGL
few clouds at 1800 feet AGL
Weather: no significant weather observed at this time

METAR text: FOOL 191400Z 28008KT 220V280 9999 SCT013 FEW018CB 30/26 Q1008 NOSIG
Conditions at: FOOL (LIBREVILLE/LEON , GA) observed 1400 UTC 19 April 2019
Temperature: 30.0°C (86°F)
Dewpoint: 26.0°C (79°F) [RH = 79%]
Pressure (altimeter): 29.76 inches Hg (1008.0 mb)
Winds: from the W (280 degrees) at 9 MPH (8 knots; 4.1 m/s)
Visibility: 6 or more miles (10+ km)
Ceiling: at least 12,000 feet AGL
Clouds: scattered clouds at 1300 feet AGL
few clouds at 1800 feet AGL
Weather: no significant weather observed at this time

METAR text: FOOL 191330Z 27006KT 230V310 9999 SCT013 FEW018CB 30/26 Q1009 NOSIG
Conditions at: FOOL (LIBREVILLE/LEON , GA) observed 1330 UTC 19 April 2019
Temperature: 30.0°C (86°F)
Dewpoint: 26.0°C (79°F) [RH = 79%]
Pressure (altimeter): 29.79 inches Hg (1009.0 mb)
Winds: from the W (270 degrees) at 7 MPH (6 knots; 3.1 m/s)
Visibility: 6 or more miles (10+ km)
Ceiling: at least 12,000 feet AGL
Clouds: scattered clouds at 1300 feet AGL
few clouds at 1800 feet AGL
Weather: no significant weather observed at this time

METAR text: FOOL 191300Z 26006KT 230V300 9999 SCT013 FEW018CB 30/26 Q1009 NOSIG
Conditions at: FOOL (LIBREVILLE/LEON , GA) observed 1300 UTC 19 April 2019
Temperature: 30.0°C (86°F)
Dewpoint: 26.0°C (79°F) [RH = 79%]
Pressure (altimeter): 29.79 inches Hg (1009.0 mb)
Winds: from the W (260 degrees) at 7 MPH (6 knots; 3.1 m/s)
Visibility: 6 or more miles (10+ km)
Ceiling: at least 12,000 feet AGL
Clouds: scattered clouds at 1300 feet AGL
few clouds at 1800 feet AGL
Weather: no significant weather observed at this time

METAR text: FOOL 191230Z 26006KT 9999 SCT013 FEW018CB 30/26 Q1010 NOSIG
Conditions at: FOOL (LIBREVILLE/LEON , GA) observed 1230 UTC 19 April 2019
Temperature: 30.0°C (86°F)
Dewpoint: 26.0°C (79°F) [RH = 79%]
Pressure (altimeter): 29.82 inches Hg (1010.0 mb)
Winds: from the W (260 degrees) at 7 MPH (6 knots; 3.1 m/s)
Visibility: 6 or more miles (10+ km)
Ceiling: at least 12,000 feet AGL
Clouds: scattered clouds at 1300 feet AGL
few clouds at 1800 feet AGL
Weather: no significant weather observed at this time

METAR text: FOOL 191200Z 23005KT 190V260 9999 SCT013 FEW018CB 30/26 Q1010 NOSIG
Conditions at: FOOL (LIBREVILLE/LEON , GA) observed 1200 UTC 19 April 2019
Temperature: 30.0°C (86°F)
Dewpoint: 26.0°C (79°F) [RH = 79%]
Pressure (altimeter): 29.82 inches Hg (1010.0 mb)
Winds: from the SW (230 degrees) at 6 MPH (5 knots; 2.6 m/s)
Visibility: 6 or more miles (10+ km)
Ceiling: at least 12,000 feet AGL
Clouds: scattered clouds at 1300 feet AGL
few clouds at 1800 feet AGL
Weather: no significant weather observed at this time

METAR text: FOOL 191130Z 19006KT 150V220 9999 SCT014 30/25 Q1010 NOSIG
Conditions at: FOOL (LIBREVILLE/LEON , GA) observed 1130 UTC 19 April 2019
Temperature: 30.0°C (86°F)
Dewpoint: 25.0°C (77°F) [RH = 75%]
Pressure (altimeter): 29.82 inches Hg (1010.0 mb)
Winds: from the S (190 degrees) at 7 MPH (6 knots; 3.1 m/s)
Visibility: 6 or more miles (10+ km)
Ceiling: at least 12,000 feet AGL
Clouds: scattered clouds at 1400 feet AGL
Weather: no significant weather observed at this time

METAR text: FOOL 191100Z 18007KT 150V230 9999 SCT014 30/26 Q1011 NOSIG
Conditions at: FOOL (LIBREVILLE/LEON , GA) observed 1100 UTC 19 April 2019
Temperature: 30.0°C (86°F)
Dewpoint: 26.0°C (79°F) [RH = 79%]
Pressure (altimeter): 29.85 inches Hg (1011.0 mb)
Winds: from the S (180 degrees) at 8 MPH (7 knots; 3.6 m/s)
Visibility: 6 or more miles (10+ km)
Ceiling: at least 12,000 feet AGL
Clouds: scattered clouds at 1400 feet AGL
Weather: no significant weather observed at this time

METAR text: FOOL 191030Z 16008KT 140V210 9999 SCT015 30/25 Q1011 NOSIG
Conditions at: FOOL (LIBREVILLE/LEON , GA) observed 1030 UTC 19 April 2019
Temperature: 30.0°C (86°F)
Dewpoint: 25.0°C (77°F) [RH = 75%]
Pressure (altimeter): 29.85 inches Hg (1011.0 mb)
Winds: from the SSE (160 degrees) at 9 MPH (8 knots; 4.1 m/s)
Visibility: 6 or more miles (10+ km)
Ceiling: at least 12,000 feet AGL
Clouds: scattered clouds at 1500 feet AGL
Weather: no significant weather observed at this time

METAR text: FOOL 191000Z 17008KT 120V200 9999 SCT015 29/25 Q1011 NOSIG
Conditions at: FOOL (LIBREVILLE/LEON , GA) observed 1000 UTC 19 April 2019
Temperature: 29.0°C (84°F)
Dewpoint: 25.0°C (77°F) [RH = 79%]
Pressure (altimeter): 29.85 inches Hg (1011.0 mb)
Winds: from the S (170 degrees) at 9 MPH (8 knots; 4.1 m/s)
Visibility: 6 or more miles (10+ km)
Ceiling: at least 12,000 feet AGL
Clouds: scattered clouds at 1500 feet AGL
Weather: no significant weather observed at this time

METAR text: FOOL 190930Z 18005KT 140V220 9999 SCT014 29/25 Q1011 NOSIG
Conditions at: FOOL (LIBREVILLE/LEON , GA) observed 0930 UTC 19 April 2019
Temperature: 29.0°C (84°F)
Dewpoint: 25.0°C (77°F) [RH = 79%]
Pressure (altimeter): 29.85 inches Hg (1011.0 mb)
Winds: from the S (180 degrees) at 6 MPH (5 knots; 2.6 m/s)
Visibility: 6 or more miles (10+ km)
Ceiling: at least 12,000 feet AGL
Clouds: scattered clouds at 1400 feet AGL
Weather: no significant weather observed at this time

METAR text: FOOL 190900Z 19007KT 150V220 9999 SCT014 29/25 Q1012 NOSIG
Conditions at: FOOL (LIBREVILLE/LEON , GA) observed 0900 UTC 19 April 2019
Temperature: 29.0°C (84°F)
Dewpoint: 25.0°C (77°F) [RH = 79%]
Pressure (altimeter): 29.88 inches Hg (1012.0 mb)
Winds: from the S (190 degrees) at 8 MPH (7 knots; 3.6 m/s)
Visibility: 6 or more miles (10+ km)
Ceiling: at least 12,000 feet AGL
Clouds: scattered clouds at 1400 feet AGL
Weather: no significant weather observed at this time

METAR text: FOOL 190830Z 19004KT 140V230 9999 SCT014 29/25 Q1012 NOSIG
Conditions at: FOOL (LIBREVILLE/LEON , GA) observed 0830 UTC 19 April 2019
Temperature: 29.0°C (84°F)
Dewpoint: 25.0°C (77°F) [RH = 79%]
Pressure (altimeter): 29.88 inches Hg (1012.0 mb)
Winds: from the S (190 degrees) at 5 MPH (4 knots; 2.1 m/s)
Visibility: 6 or more miles (10+ km)
Ceiling: at least 12,000 feet AGL
Clouds: scattered clouds at 1400 feet AGL
Weather: no significant weather observed at this time

METAR text: FOOL 190800Z 12004KT 9999 SCT013 28/25 Q1012 NOSIG
Conditions at: FOOL (LIBREVILLE/LEON , GA) observed 0800 UTC 19 April 2019
Temperature: 28.0°C (82°F)
Dewpoint: 25.0°C (77°F) [RH = 84%]
Pressure (altimeter): 29.88 inches Hg (1012.0 mb)
Winds: from the ESE (120 degrees) at 5 MPH (4 knots; 2.1 m/s)
Visibility: 6 or more miles (10+ km)
Ceiling: at least 12,000 feet AGL
Clouds: scattered clouds at 1300 feet AGL
Weather: no significant weather observed at this time

METAR text: FOOL 190730Z 07003KT 9000 FEW012 SCT027 27/25 Q1012 NOSIG
Conditions at: FOOL (LIBREVILLE/LEON , GA) observed 0730 UTC 19 April 2019
Temperature: 27.0°C (81°F)
Dewpoint: 25.0°C (77°F) [RH = 89%]
Pressure (altimeter): 29.88 inches Hg (1012.0 mb)
Winds: from the ENE (70 degrees) at 3 MPH (3 knots; 1.5 m/s)
Visibility: 6 miles ( 9 km)
Ceiling: at least 12,000 feet AGL
Clouds: few clouds at 1200 feet AGL
scattered clouds at 2700 feet AGL
Weather: no significant weather observed at this time

METAR text: FOOL 190700Z 08002KT 9000 FEW010 BKN016 26/24 Q1012 NOSIG
Conditions at: FOOL (LIBREVILLE/LEON , GA) observed 0700 UTC 19 April 2019
Temperature: 26.0°C (79°F)
Dewpoint: 24.0°C (75°F) [RH = 89%]
Pressure (altimeter): 29.88 inches Hg (1012.0 mb)
Winds: from the E (80 degrees) at 2 MPH (2 knots; 1.0 m/s)
Visibility: 6 miles ( 9 km)
Ceiling: 1600 feet AGL
Clouds: few clouds at 1000 feet AGL
broken clouds at 1600 feet AGL
Weather: no significant weather observed at this time

METAR text: FOOL 190630Z 09003KT 9000 FEW011 BKN016 25/24 Q1011 NOSIG
Conditions at: FOOL (LIBREVILLE/LEON , GA) observed 0630 UTC 19 April 2019
Temperature: 25.0°C (77°F)
Dewpoint: 24.0°C (75°F) [RH = 94%]
Pressure (altimeter): 29.85 inches Hg (1011.0 mb)
Winds: from the E (90 degrees) at 3 MPH (3 knots; 1.5 m/s)
Visibility: 6 miles ( 9 km)
Ceiling: 1600 feet AGL
Clouds: few clouds at 1100 feet AGL
broken clouds at 1600 feet AGL
Weather: no significant weather observed at this time

METAR text: FOOL 190600Z 05002KT 9000 SCT012 25/24 Q1011 NOSIG
Conditions at: FOOL (LIBREVILLE/LEON , GA) observed 0600 UTC 19 April 2019
Temperature: 25.0°C (77°F)
Dewpoint: 24.0°C (75°F) [RH = 94%]
Pressure (altimeter): 29.85 inches Hg (1011.0 mb)
Winds: from the NE (50 degrees) at 2 MPH (2 knots; 1.0 m/s)
Visibility: 6 miles ( 9 km)
Ceiling: at least 12,000 feet AGL
Clouds: scattered clouds at 1200 feet AGL
Weather: no significant weather observed at this time

METAR text: FOOL 190530Z 12003KT 9000 SCT010 BKN023 25/24 Q1010 NOSIG
Conditions at: FOOL (LIBREVILLE/LEON , GA) observed 0530 UTC 19 April 2019
Temperature: 25.0°C (77°F)
Dewpoint: 24.0°C (75°F) [RH = 94%]
Pressure (altimeter): 29.82 inches Hg (1010.0 mb)
Winds: from the ESE (120 degrees) at 3 MPH (3 knots; 1.5 m/s)
Visibility: 6 miles ( 9 km)
Ceiling: 2300 feet AGL
Clouds: scattered clouds at 1000 feet AGL
broken clouds at 2300 feet AGL
Weather: no significant weather observed at this time

METAR text: FOOL 190500Z 10003KT 9000 SCT010 24/23 Q1010 NOSIG
Conditions at: FOOL (LIBREVILLE/LEON , GA) observed 0500 UTC 19 April 2019
Temperature: 24.0°C (75°F)
Dewpoint: 23.0°C (73°F) [RH = 94%]
Pressure (altimeter): 29.82 inches Hg (1010.0 mb)
Winds: from the E (100 degrees) at 3 MPH (3 knots; 1.5 m/s)
Visibility: 6 miles ( 9 km)
Ceiling: at least 12,000 feet AGL
Clouds: scattered clouds at 1000 feet AGL
Weather: no significant weather observed at this time

METAR text: FOOL 190430Z 10003KT 9000 SCT010 24/23 Q1010 NOSIG
Conditions at: FOOL (LIBREVILLE/LEON , GA) observed 0430 UTC 19 April 2019
Temperature: 24.0°C (75°F)
Dewpoint: 23.0°C (73°F) [RH = 94%]
Pressure (altimeter): 29.82 inches Hg (1010.0 mb)
Winds: from the E (100 degrees) at 3 MPH (3 knots; 1.5 m/s)
Visibility: 6 miles ( 9 km)
Ceiling: at least 12,000 feet AGL
Clouds: scattered clouds at 1000 feet AGL
Weather: no significant weather observed at this time

METAR text: FOOL 190400Z 10003KT 9000 SCT010 24/23 Q1009 NOSIG
Conditions at: FOOL (LIBREVILLE/LEON , GA) observed 0400 UTC 19 April 2019
Temperature: 24.0°C (75°F)
Dewpoint: 23.0°C (73°F) [RH = 94%]
Pressure (altimeter): 29.79 inches Hg (1009.0 mb)
Winds: from the E (100 degrees) at 3 MPH (3 knots; 1.5 m/s)
Visibility: 6 miles ( 9 km)
Ceiling: at least 12,000 feet AGL
Clouds: scattered clouds at 1000 feet AGL
Weather: no significant weather observed at this time

METAR text: FOOL 190330Z 10003KT 9000 SCT010 24/23 Q1009 NOSIG
Conditions at: FOOL (LIBREVILLE/LEON , GA) observed 0330 UTC 19 April 2019
Temperature: 24.0°C (75°F)
Dewpoint: 23.0°C (73°F) [RH = 94%]
Pressure (altimeter): 29.79 inches Hg (1009.0 mb)
Winds: from the E (100 degrees) at 3 MPH (3 knots; 1.5 m/s)
Visibility: 6 miles ( 9 km)
Ceiling: at least 12,000 feet AGL
Clouds: scattered clouds at 1000 feet AGL
Weather: no significant weather observed at this time

METAR text: FOOL 190300Z 10003KT 9000 SCT010 24/24 Q1009 NOSIG
Conditions at: FOOL (LIBREVILLE/LEON , GA) observed 0300 UTC 19 April 2019
Temperature: 24.0°C (75°F)
Dewpoint: 24.0°C (75°F) [RH = 100%]
Pressure (altimeter): 29.79 inches Hg (1009.0 mb)
Winds: from the E (100 degrees) at 3 MPH (3 knots; 1.5 m/s)
Visibility: 6 miles ( 9 km)
Ceiling: at least 12,000 feet AGL
Clouds: scattered clouds at 1000 feet AGL
Weather: no significant weather observed at this time

METAR text: FOOL 190230Z 10003KT 9000 SCT010 24/24 Q1009 NOSIG
Conditions at: FOOL (LIBREVILLE/LEON , GA) observed 0230 UTC 19 April 2019
Temperature: 24.0°C (75°F)
Dewpoint: 24.0°C (75°F) [RH = 100%]
Pressure (altimeter): 29.79 inches Hg (1009.0 mb)
Winds: from the E (100 degrees) at 3 MPH (3 knots; 1.5 m/s)
Visibility: 6 miles ( 9 km)
Ceiling: at least 12,000 feet AGL
Clouds: scattered clouds at 1000 feet AGL
Weather: no significant weather observed at this time

METAR text: FOOL 190200Z 10003KT 9000 SCT010 24/24 Q1010 NOSIG
Conditions at: FOOL (LIBREVILLE/LEON , GA) observed 0200 UTC 19 April 2019
Temperature: 24.0°C (75°F)
Dewpoint: 24.0°C (75°F) [RH = 100%]
Pressure (altimeter): 29.82 inches Hg (1010.0 mb)
Winds: from the E (100 degrees) at 3 MPH (3 knots; 1.5 m/s)
Visibility: 6 miles ( 9 km)
Ceiling: at least 12,000 feet AGL
Clouds: scattered clouds at 1000 feet AGL
Weather: no significant weather observed at this time

METAR text: FOOL 190130Z 13003KT 9000 SCT010 25/24 Q1010 NOSIG
Conditions at: FOOL (LIBREVILLE/LEON , GA) observed 0130 UTC 19 April 2019
Temperature: 25.0°C (77°F)
Dewpoint: 24.0°C (75°F) [RH = 94%]
Pressure (altimeter): 29.82 inches Hg (1010.0 mb)
Winds: from the SE (130 degrees) at 3 MPH (3 knots; 1.5 m/s)
Visibility: 6 miles ( 9 km)
Ceiling: at least 12,000 feet AGL
Clouds: scattered clouds at 1000 feet AGL
Weather: no significant weather observed at this time

METAR text: FOOL 190100Z 13003KT 9000 SCT010 25/24 Q1010 NOSIG
Conditions at: FOOL (LIBREVILLE/LEON , GA) observed 0100 UTC 19 April 2019
Temperature: 25.0°C (77°F)
Dewpoint: 24.0°C (75°F) [RH = 94%]
Pressure (altimeter): 29.82 inches Hg (1010.0 mb)
Winds: from the SE (130 degrees) at 3 MPH (3 knots; 1.5 m/s)
Visibility: 6 miles ( 9 km)
Ceiling: at least 12,000 feet AGL
Clouds: scattered clouds at 1000 feet AGL
Weather: no significant weather observed at this time

METAR text: FOOL 190030Z 13005KT 9000 SCT010 24/23 Q1010 NOSIG
Conditions at: FOOL (LIBREVILLE/LEON , GA) observed 0030 UTC 19 April 2019
Temperature: 24.0°C (75°F)
Dewpoint: 23.0°C (73°F) [RH = 94%]
Pressure (altimeter): 29.82 inches Hg (1010.0 mb)
Winds: from the SE (130 degrees) at 6 MPH (5 knots; 2.6 m/s)
Visibility: 6 miles ( 9 km)
Ceiling: at least 12,000 feet AGL
Clouds: scattered clouds at 1000 feet AGL
Weather: no significant weather observed at this time

METAR text: FOOL 190000Z 13005KT 9000 SCT010 24/23 Q1010 NOSIG
Conditions at: FOOL (LIBREVILLE/LEON , GA) observed 0000 UTC 19 April 2019
Temperature: 24.0°C (75°F)
Dewpoint: 23.0°C (73°F) [RH = 94%]
Pressure (altimeter): 29.82 inches Hg (1010.0 mb)
Winds: from the SE (130 degrees) at 6 MPH (5 knots; 2.6 m/s)
Visibility: 6 miles ( 9 km)
Ceiling: at least 12,000 feet AGL
Clouds: scattered clouds at 1000 feet AGL
Weather: no significant weather observed at this time

METAR text: FOOL 182330Z 13005KT 9000 FEW009 24/23 Q1010 NOSIG
Conditions at: FOOL (LIBREVILLE/LEON , GA) observed 2330 UTC 18 April 2019
Temperature: 24.0°C (75°F)
Dewpoint: 23.0°C (73°F) [RH = 94%]
Pressure (altimeter): 29.82 inches Hg (1010.0 mb)
Winds: from the SE (130 degrees) at 6 MPH (5 knots; 2.6 m/s)
Visibility: 6 miles ( 9 km)
Ceiling: at least 12,000 feet AGL
Clouds: few clouds at 900 feet AGL
Weather: no significant weather observed at this time

METAR text: FOOL 182300Z 12005KT 9000 FEW009 24/23 Q1010 NOSIG
Conditions at: FOOL (LIBREVILLE/LEON , GA) observed 2300 UTC 18 April 2019
Temperature: 24.0°C (75°F)
Dewpoint: 23.0°C (73°F) [RH = 94%]
Pressure (altimeter): 29.82 inches Hg (1010.0 mb)
Winds: from the ESE (120 degrees) at 6 MPH (5 knots; 2.6 m/s)
Visibility: 6 miles ( 9 km)
Ceiling: at least 12,000 feet AGL
Clouds: few clouds at 900 feet AGL
Weather: no significant weather observed at this time

METAR text: FOOL 182230Z 12005KT 9000 FEW009 24/23 Q1011 NOSIG
Conditions at: FOOL (LIBREVILLE/LEON , GA) observed 2230 UTC 18 April 2019
Temperature: 24.0°C (75°F)
Dewpoint: 23.0°C (73°F) [RH = 94%]
Pressure (altimeter): 29.85 inches Hg (1011.0 mb)
Winds: from the ESE (120 degrees) at 6 MPH (5 knots; 2.6 m/s)
Visibility: 6 miles ( 9 km)
Ceiling: at least 12,000 feet AGL
Clouds: few clouds at 900 feet AGL
Weather: no significant weather observed at this time

METAR text: FOOL 182200Z 12005KT 9000 FEW009 24/23 Q1010 NOSIG
Conditions at: FOOL (LIBREVILLE/LEON , GA) observed 2200 UTC 18 April 2019
Temperature: 24.0°C (75°F)
Dewpoint: 23.0°C (73°F) [RH = 94%]
Pressure (altimeter): 29.82 inches Hg (1010.0 mb)
Winds: from the ESE (120 degrees) at 6 MPH (5 knots; 2.6 m/s)
Visibility: 6 miles ( 9 km)
Ceiling: at least 12,000 feet AGL
Clouds: few clouds at 900 feet AGL
Weather: no significant weather observed at this time

METAR text: FOOL 182130Z 08005KT 9000 FEW009 24/23 Q1010 NOSIG
Conditions at: FOOL (LIBREVILLE/LEON , GA) observed 2130 UTC 18 April 2019
Temperature: 24.0°C (75°F)
Dewpoint: 23.0°C (73°F) [RH = 94%]
Pressure (altimeter): 29.82 inches Hg (1010.0 mb)
Winds: from the E (80 degrees) at 6 MPH (5 knots; 2.6 m/s)
Visibility: 6 miles ( 9 km)
Ceiling: at least 12,000 feet AGL
Clouds: few clouds at 900 feet AGL
Weather: no significant weather observed at this time

METAR text: FOOL 182100Z 08005KT 9000 FEW009 24/23 Q1010 NOSIG
Conditions at: FOOL (LIBREVILLE/LEON , GA) observed 2100 UTC 18 April 2019
Temperature: 24.0°C (75°F)
Dewpoint: 23.0°C (73°F) [RH = 94%]
Pressure (altimeter): 29.82 inches Hg (1010.0 mb)
Winds: from the E (80 degrees) at 6 MPH (5 knots; 2.6 m/s)
Visibility: 6 miles ( 9 km)
Ceiling: at least 12,000 feet AGL
Clouds: few clouds at 900 feet AGL
Weather: no significant weather observed at this time

METAR text: FOOL 182030Z 07005KT 9000 FEW009 24/23 Q1010 NOSIG
Conditions at: FOOL (LIBREVILLE/LEON , GA) observed 2030 UTC 18 April 2019
Temperature: 24.0°C (75°F)
Dewpoint: 23.0°C (73°F) [RH = 94%]
Pressure (altimeter): 29.82 inches Hg (1010.0 mb)
Winds: from the ENE (70 degrees) at 6 MPH (5 knots; 2.6 m/s)
Visibility: 6 miles ( 9 km)
Ceiling: at least 12,000 feet AGL
Clouds: few clouds at 900 feet AGL
Weather: no significant weather observed at this time

METAR text: FOOL 182000Z 07005KT 9000 FEW009 24/23 Q1010 NOSIG
Conditions at: FOOL (LIBREVILLE/LEON , GA) observed 2000 UTC 18 April 2019
Temperature: 24.0°C (75°F)
Dewpoint: 23.0°C (73°F) [RH = 94%]
Pressure (altimeter): 29.82 inches Hg (1010.0 mb)
Winds: from the ENE (70 degrees) at 6 MPH (5 knots; 2.6 m/s)
Visibility: 6 miles ( 9 km)
Ceiling: at least 12,000 feet AGL
Clouds: few clouds at 900 feet AGL
Weather: no significant weather observed at this time

METAR text: FOOL 181930Z 07005KT 9000 FEW009 24/23 Q1009 NOSIG
Conditions at: FOOL (LIBREVILLE/LEON , GA) observed 1930 UTC 18 April 2019
Temperature: 24.0°C (75°F)
Dewpoint: 23.0°C (73°F) [RH = 94%]
Pressure (altimeter): 29.79 inches Hg (1009.0 mb)
Winds: from the ENE (70 degrees) at 6 MPH (5 knots; 2.6 m/s)
Visibility: 6 miles ( 9 km)
Ceiling: at least 12,000 feet AGL
Clouds: few clouds at 900 feet AGL
Weather: no significant weather observed at this time

METAR text: FOOL 181900Z 07005KT 9000 FEW009 24/23 Q1009 NOSIG
Conditions at: FOOL (LIBREVILLE/LEON , GA) observed 1900 UTC 18 April 2019
Temperature: 24.0°C (75°F)
Dewpoint: 23.0°C (73°F) [RH = 94%]
Pressure (altimeter): 29.79 inches Hg (1009.0 mb)
Winds: from the ENE (70 degrees) at 6 MPH (5 knots; 2.6 m/s)
Visibility: 6 miles ( 9 km)
Ceiling: at least 12,000 feet AGL
Clouds: few clouds at 900 feet AGL
Weather: no significant weather observed at this time

METAR text: FOOL 181830Z 11003KT 9000 -RA FEW010 24/23 Q1008 NOSIG
Conditions at: FOOL (LIBREVILLE/LEON , GA) observed 1830 UTC 18 April 2019
Temperature: 24.0°C (75°F)
Dewpoint: 23.0°C (73°F) [RH = 94%]
Pressure (altimeter): 29.76 inches Hg (1008.0 mb)
Winds: from the ESE (110 degrees) at 3 MPH (3 knots; 1.5 m/s)
Visibility: 6 miles ( 9 km)
Ceiling: at least 12,000 feet AGL
Clouds: few clouds at 1000 feet AGL
Weather: -RA  (light rain)

METAR text: FOOL 181800Z 03003KT 9000 -RA FEW010 SCT042 23/23 Q1008 NOSIG
Conditions at: FOOL (LIBREVILLE/LEON , GA) observed 1800 UTC 18 April 2019
Temperature: 23.0°C (73°F)
Dewpoint: 23.0°C (73°F) [RH = 100%]
Pressure (altimeter): 29.76 inches Hg (1008.0 mb)
Winds: from the NNE (30 degrees) at 3 MPH (3 knots; 1.5 m/s)
Visibility: 6 miles ( 9 km)
Ceiling: at least 12,000 feet AGL
Clouds: few clouds at 1000 feet AGL
scattered clouds at 4200 feet AGL
Weather: -RA  (light rain)

METAR text: FOOL 181730Z 11005KT 9999 FEW010 BKN045 24/23 Q1008 NOSIG
Conditions at: FOOL (LIBREVILLE/LEON , GA) observed 1730 UTC 18 April 2019
Temperature: 24.0°C (75°F)
Dewpoint: 23.0°C (73°F) [RH = 94%]
Pressure (altimeter): 29.76 inches Hg (1008.0 mb)
Winds: from the ESE (110 degrees) at 6 MPH (5 knots; 2.6 m/s)
Visibility: 6 or more miles (10+ km)
Ceiling: 4500 feet AGL
Clouds: few clouds at 1000 feet AGL
broken clouds at 4500 feet AGL
Weather: no significant weather observed at this time

METAR text: FOOL 181700Z 11006KT 9999 FEW010 BKN043 24/23 Q1007 NOSIG
Conditions at: FOOL (LIBREVILLE/LEON , GA) observed 1700 UTC 18 April 2019
Temperature: 24.0°C (75°F)
Dewpoint: 23.0°C (73°F) [RH = 94%]
Pressure (altimeter): 29.73 inches Hg (1007.0 mb)
Winds: from the ESE (110 degrees) at 7 MPH (6 knots; 3.1 m/s)
Visibility: 6 or more miles (10+ km)
Ceiling: 4300 feet AGL
Clouds: few clouds at 1000 feet AGL
broken clouds at 4300 feet AGL
Weather: no significant weather observed at this time

METAR text: FOOL 181630Z 16012KT 9999 FEW011 FEW020CB BKN024 24/23 Q1007 NOSIG
Conditions at: FOOL (LIBREVILLE/LEON , GA) observed 1630 UTC 18 April 2019
Temperature: 24.0°C (75°F)
Dewpoint: 23.0°C (73°F) [RH = 94%]
Pressure (altimeter): 29.73 inches Hg (1007.0 mb)
Winds: from the SSE (160 degrees) at 14 MPH (12 knots; 6.2 m/s)
Visibility: 6 or more miles (10+ km)
Ceiling: 2400 feet AGL
Clouds: few clouds at 1100 feet AGL
few clouds at 2000 feet AGL
broken clouds at 2400 feet AGL
Weather: no significant weather observed at this time

METAR text: FOOL 181600Z 16007KT 120V190 9000 -TSRA FEW011 FEW018CB 23/22 Q1007 BECMG NSW
Conditions at: FOOL (LIBREVILLE/LEON , GA) observed 1600 UTC 18 April 2019
Temperature: 23.0°C (73°F)
Dewpoint: 22.0°C (72°F) [RH = 94%]
Pressure (altimeter): 29.73 inches Hg (1007.0 mb)
Winds: from the SSE (160 degrees) at 8 MPH (7 knots; 3.6 m/s)
Visibility: 6 miles ( 9 km)
Ceiling: at least 12,000 feet AGL
Clouds: few clouds at 1100 feet AGL
few clouds at 1800 feet AGL
Weather: -TSRA  (light rain associated with thunderstorm(s))

METAR text: FOOL 181530Z 05005KT 350V120 4500 TSRA FEW011 FEW018CB BKN036 22/21 Q1010 TEMPO 1200
Conditions at: FOOL (LIBREVILLE/LEON , GA) observed 1530 UTC 18 April 2019
Temperature: 22.0°C (72°F)
Dewpoint: 21.0°C (70°F) [RH = 94%]
Pressure (altimeter): 29.82 inches Hg (1010.0 mb)
Winds: from the NE (50 degrees) at 6 MPH (5 knots; 2.6 m/s)
Visibility: 2.80 miles (4.51 km)
Ceiling: 3600 feet AGL
Clouds: few clouds at 1100 feet AGL
few clouds at 1800 feet AGL
broken clouds at 3600 feet AGL
Weather: TSRA  (rain associated with thunderstorm(s))

METAR text: FOOL 181500Z 23005KT 200V290 -TSRA 8000 SCT012 FEW018CB SCT036 28/25 Q1009 NOSIG
Conditions at: FOOL (LIBREVILLE/LEON , GA) observed 1500 UTC 18 April 2019
Temperature: 28.0°C (82°F)
Dewpoint: 25.0°C (77°F) [RH = 84%]
Pressure (altimeter): 29.79 inches Hg (1009.0 mb)
Winds: from the SW (230 degrees) at 6 MPH (5 knots; 2.6 m/s)
Visibility: 5 miles ( 8 km)
Ceiling: at least 12,000 feet AGL
Clouds: scattered clouds at 1200 feet AGL
few clouds at 1800 feet AGL
scattered clouds at 3600 feet AGL
Weather: -TSRA  (light rain associated with thunderstorm(s))

METAR text: FOOL 181430Z 18006KT 150V230 9999 SCT012 FEW018CB SCT032 28/25 Q1008 TEMPO TS
Conditions at: FOOL (LIBREVILLE/LEON , GA) observed 1430 UTC 18 April 2019
Temperature: 28.0°C (82°F)
Dewpoint: 25.0°C (77°F) [RH = 84%]
Pressure (altimeter): 29.76 inches Hg (1008.0 mb)
Winds: from the S (180 degrees) at 7 MPH (6 knots; 3.1 m/s)
Visibility: 6 or more miles (10+ km)
Ceiling: at least 12,000 feet AGL
Clouds: scattered clouds at 1200 feet AGL
few clouds at 1800 feet AGL
scattered clouds at 3200 feet AGL
Weather: no significant weather observed at this time

METAR text: FOOL 181400Z 18009KT 150V210 9999 FEW012 FEW018CB SCT036 29/25 Q1008 NOSIG
Conditions at: FOOL (LIBREVILLE/LEON , GA) observed 1400 UTC 18 April 2019
Temperature: 29.0°C (84°F)
Dewpoint: 25.0°C (77°F) [RH = 79%]
Pressure (altimeter): 29.76 inches Hg (1008.0 mb)
Winds: from the S (180 degrees) at 10 MPH (9 knots; 4.6 m/s)
Visibility: 6 or more miles (10+ km)
Ceiling: at least 12,000 feet AGL
Clouds: few clouds at 1200 feet AGL
few clouds at 1800 feet AGL
scattered clouds at 3600 feet AGL
Weather: no significant weather observed at this time

METAR text: FOOL 181330Z 18009KT 150V210 9999 SCT013 BKN032 28/25 Q1009 NOSIG
Conditions at: FOOL (LIBREVILLE/LEON , GA) observed 1330 UTC 18 April 2019
Temperature: 28.0°C (82°F)
Dewpoint: 25.0°C (77°F) [RH = 84%]
Pressure (altimeter): 29.79 inches Hg (1009.0 mb)
Winds: from the S (180 degrees) at 10 MPH (9 knots; 4.6 m/s)
Visibility: 6 or more miles (10+ km)
Ceiling: 3200 feet AGL
Clouds: scattered clouds at 1300 feet AGL
broken clouds at 3200 feet AGL
Weather: no significant weather observed at this time

METAR text: FOOL 181300Z 18008KT 9999 SCT013 SCT036 29/25 Q1009 NOSIG
Conditions at: FOOL (LIBREVILLE/LEON , GA) observed 1300 UTC 18 April 2019
Temperature: 29.0°C (84°F)
Dewpoint: 25.0°C (77°F) [RH = 79%]
Pressure (altimeter): 29.79 inches Hg (1009.0 mb)
Winds: from the S (180 degrees) at 9 MPH (8 knots; 4.1 m/s)
Visibility: 6 or more miles (10+ km)
Ceiling: at least 12,000 feet AGL
Clouds: scattered clouds at 1300 feet AGL
scattered clouds at 3600 feet AGL
Weather: no significant weather observed at this time

METAR text: FOOL 181230Z 18010KT 9999 SCT013 BKN036 29/25 Q1010 NOSIG
Conditions at: FOOL (LIBREVILLE/LEON , GA) observed 1230 UTC 18 April 2019
Temperature: 29.0°C (84°F)
Dewpoint: 25.0°C (77°F) [RH = 79%]
Pressure (altimeter): 29.82 inches Hg (1010.0 mb)
Winds: from the S (180 degrees) at 12 MPH (10 knots; 5.1 m/s)
Visibility: 6 or more miles (10+ km)
Ceiling: 3600 feet AGL
Clouds: scattered clouds at 1300 feet AGL
broken clouds at 3600 feet AGL
Weather: no significant weather observed at this time

METAR text: FOOL 181200Z 19007KT 9999 SCT012 BKN033 28/25 Q1010 NOSIG
Conditions at: FOOL (LIBREVILLE/LEON , GA) observed 1200 UTC 18 April 2019
Temperature: 28.0°C (82°F)
Dewpoint: 25.0°C (77°F) [RH = 84%]
Pressure (altimeter): 29.82 inches Hg (1010.0 mb)
Winds: from the S (190 degrees) at 8 MPH (7 knots; 3.6 m/s)
Visibility: 6 or more miles (10+ km)
Ceiling: 3300 feet AGL
Clouds: scattered clouds at 1200 feet AGL
broken clouds at 3300 feet AGL
Weather: no significant weather observed at this time

METAR text: FOOL 181130Z 19007KT 9999 SCT010 FEW018CB BKN023 28/25 Q1010 NOSIG
Conditions at: FOOL (LIBREVILLE/LEON , GA) observed 1130 UTC 18 April 2019
Temperature: 28.0°C (82°F)
Dewpoint: 25.0°C (77°F) [RH = 84%]
Pressure (altimeter): 29.82 inches Hg (1010.0 mb)
Winds: from the S (190 degrees) at 8 MPH (7 knots; 3.6 m/s)
Visibility: 6 or more miles (10+ km)
Ceiling: 2300 feet AGL
Clouds: scattered clouds at 1000 feet AGL
few clouds at 1800 feet AGL
broken clouds at 2300 feet AGL
Weather: no significant weather observed at this time

METAR text: FOOL 181100Z 17007KT 9999 SCT010 FEW018CB BKN023 28/25 Q1011 NOSIG
Conditions at: FOOL (LIBREVILLE/LEON , GA) observed 1100 UTC 18 April 2019
Temperature: 28.0°C (82°F)
Dewpoint: 25.0°C (77°F) [RH = 84%]
Pressure (altimeter): 29.85 inches Hg (1011.0 mb)
Winds: from the S (170 degrees) at 8 MPH (7 knots; 3.6 m/s)
Visibility: 6 or more miles (10+ km)
Ceiling: 2300 feet AGL
Clouds: scattered clouds at 1000 feet AGL
few clouds at 1800 feet AGL
broken clouds at 2300 feet AGL
Weather: no significant weather observed at this time

METAR text: FOOL 181030Z 23005KT 9999 SCT010 FEW018CB BKN023 29/25 Q1011 NOSIG
Conditions at: FOOL (LIBREVILLE/LEON , GA) observed 1030 UTC 18 April 2019
Temperature: 29.0°C (84°F)
Dewpoint: 25.0°C (77°F) [RH = 79%]
Pressure (altimeter): 29.85 inches Hg (1011.0 mb)
Winds: from the SW (230 degrees) at 6 MPH (5 knots; 2.6 m/s)
Visibility: 6 or more miles (10+ km)
Ceiling: 2300 feet AGL
Clouds: scattered clouds at 1000 feet AGL
few clouds at 1800 feet AGL
broken clouds at 2300 feet AGL
Weather: no significant weather observed at this time

METAR text: FOOL 181000Z 31004KT 9999 SCT010 FEW018CB BKN023 28/25 Q1011 NOSIG
Conditions at: FOOL (LIBREVILLE/LEON , GA) observed 1000 UTC 18 April 2019
Temperature: 28.0°C (82°F)
Dewpoint: 25.0°C (77°F) [RH = 84%]
Pressure (altimeter): 29.85 inches Hg (1011.0 mb)
Winds: from the NW (310 degrees) at 5 MPH (4 knots; 2.1 m/s)
Visibility: 6 or more miles (10+ km)
Ceiling: 2300 feet AGL
Clouds: scattered clouds at 1000 feet AGL
few clouds at 1800 feet AGL
broken clouds at 2300 feet AGL
Weather: no significant weather observed at this time

METAR text: FOOL 180930Z 31004KT 9999 SCT010 FEW018CB BKN023 28/25 Q1011 NOSIG
Conditions at: FOOL (LIBREVILLE/LEON , GA) observed 0930 UTC 18 April 2019
Temperature: 28.0°C (82°F)
Dewpoint: 25.0°C (77°F) [RH = 84%]
Pressure (altimeter): 29.85 inches Hg (1011.0 mb)
Winds: from the NW (310 degrees) at 5 MPH (4 knots; 2.1 m/s)
Visibility: 6 or more miles (10+ km)
Ceiling: 2300 feet AGL
Clouds: scattered clouds at 1000 feet AGL
few clouds at 1800 feet AGL
broken clouds at 2300 feet AGL
Weather: no significant weather observed at this time

METAR text: FOOL 180900Z 08003KT 9999 TS SCT010 FEW018CB BKN016 28/25 Q1011 TEMPO NSW
Conditions at: FOOL (LIBREVILLE/LEON , GA) observed 0900 UTC 18 April 2019
Temperature: 28.0°C (82°F)
Dewpoint: 25.0°C (77°F) [RH = 84%]
Pressure (altimeter): 29.85 inches Hg (1011.0 mb)
Winds: from the E (80 degrees) at 3 MPH (3 knots; 1.5 m/s)
Visibility: 6 or more miles (10+ km)
Ceiling: 1600 feet AGL
Clouds: scattered clouds at 1000 feet AGL
few clouds at 1800 feet AGL
broken clouds at 1600 feet AGL
Weather: TS  (thunderstorm)

METAR text: FOOL 180830Z 08003KT 9999 TS SCT010 FEW018CB BKN016 28/25 Q1011 TEMPO NSW
Conditions at: FOOL (LIBREVILLE/LEON , GA) observed 0830 UTC 18 April 2019
Temperature: 28.0°C (82°F)
Dewpoint: 25.0°C (77°F) [RH = 84%]
Pressure (altimeter): 29.85 inches Hg (1011.0 mb)
Winds: from the E (80 degrees) at 3 MPH (3 knots; 1.5 m/s)
Visibility: 6 or more miles (10+ km)
Ceiling: 1600 feet AGL
Clouds: scattered clouds at 1000 feet AGL
few clouds at 1800 feet AGL
broken clouds at 1600 feet AGL
Weather: TS  (thunderstorm)

METAR text: FOOL 180800Z 07003KT 9999 TS SCT010 FEW018CB BKN016 27/25 Q1011 TEMPO NSW
Conditions at: FOOL (LIBREVILLE/LEON , GA) observed 0800 UTC 18 April 2019
Temperature: 27.0°C (81°F)
Dewpoint: 25.0°C (77°F) [RH = 89%]
Pressure (altimeter): 29.85 inches Hg (1011.0 mb)
Winds: from the ENE (70 degrees) at 3 MPH (3 knots; 1.5 m/s)
Visibility: 6 or more miles (10+ km)
Ceiling: 1600 feet AGL
Clouds: scattered clouds at 1000 feet AGL
few clouds at 1800 feet AGL
broken clouds at 1600 feet AGL
Weather: TS  (thunderstorm)

METAR text: FOOL 180730Z 07003KT 9999 TS SCT010 FEW018CB 27/25 Q1011 NOSIG
Conditions at: FOOL (LIBREVILLE/LEON , GA) observed 0730 UTC 18 April 2019
Temperature: 27.0°C (81°F)
Dewpoint: 25.0°C (77°F) [RH = 89%]
Pressure (altimeter): 29.85 inches Hg (1011.0 mb)
Winds: from the ENE (70 degrees) at 3 MPH (3 knots; 1.5 m/s)
Visibility: 6 or more miles (10+ km)
Ceiling: at least 12,000 feet AGL
Clouds: scattered clouds at 1000 feet AGL
few clouds at 1800 feet AGL
Weather: TS  (thunderstorm)

METAR text: FOOL 180700Z 07003KT 9000 TS SCT010 FEW018CB 26/24 Q1010 NOSIG
Conditions at: FOOL (LIBREVILLE/LEON , GA) observed 0700 UTC 18 April 2019
Temperature: 26.0°C (79°F)
Dewpoint: 24.0°C (75°F) [RH = 89%]
Pressure (altimeter): 29.82 inches Hg (1010.0 mb)
Winds: from the ENE (70 degrees) at 3 MPH (3 knots; 1.5 m/s)
Visibility: 6 miles ( 9 km)
Ceiling: at least 12,000 feet AGL
Clouds: scattered clouds at 1000 feet AGL
few clouds at 1800 feet AGL
Weather: TS  (thunderstorm)

METAR text: FOOL 180630Z 11004KT 9000 TS SCT010 FEW018CB 25/24 Q1010 NOSIG
Conditions at: FOOL (LIBREVILLE/LEON , GA) observed 0630 UTC 18 April 2019
Temperature: 25.0°C (77°F)
Dewpoint: 24.0°C (75°F) [RH = 94%]
Pressure (altimeter): 29.82 inches Hg (1010.0 mb)
Winds: from the ESE (110 degrees) at 5 MPH (4 knots; 2.1 m/s)
Visibility: 6 miles ( 9 km)
Ceiling: at least 12,000 feet AGL
Clouds: scattered clouds at 1000 feet AGL
few clouds at 1800 feet AGL
Weather: TS  (thunderstorm)

Forecast for: FOOL (LIBREVILLE/LEON , GA)
Text: TAF FOOL 191700Z 1918/2024 22010KT 9999 TS SCT012 FEW020CB BKN030
Forecast period: 1800 UTC 19 April 2019 to 0000 UTC 20 April 2019
Forecast type: FROM: standard forecast or significant change
Winds: from the SW (220 degrees) at 12 MPH (10 knots; 5.1 m/s)
Visibility: 6 or more miles 10+ km)
Ceiling: 3000 feet AGL
Clouds: scattered clouds at 1200 feet AGL
few clouds at 2000 feet AGL
broken clouds at 3000 feet AGL
Weather: TS  (thunderstorm)
Text: TEMPO 1920/2001 2500 TSRA BKN008 FEW016CB OVC026
Forecast period: 2000 UTC 19 April 2019 to 0100 UTC 20 April 2019
Forecast type: TEMPORARY: The following changes expected for less than half the time period
Visibility: 1.55 miles (2.49 km)
Ceiling: 800 feet AGL
Clouds: broken clouds at 800 feet AGL
few clouds at 1600 feet AGL
overcast cloud deck at 2600 feet AGL
Weather: TSRA  (rain associated with thunderstorm(s))
Text: BECMG 2000/2002 NSW
Forecast period: 0000 UTC 20 April 2019 to 0000 UTC 21 April 2019
Forecast type: BECOMING: Conditions expected to become as follows by 0200 UTC 20 April 2019
Winds: from the SW (220 degrees) at 12 MPH (10 knots; 5.1 m/s)
Visibility: 6 or more miles 10+ km)
Ceiling: 3000 feet AGL
Clouds: scattered clouds at 1200 feet AGL
few clouds at 2000 feet AGL
broken clouds at 3000 feet AGL
Weather: NSW  (no significant weather)
Text: TEMPO 2014/2019 TS
Forecast period: 1400 to 1900 UTC 20 April 2019
Forecast type: TEMPORARY: The following changes expected for less than half the time period
Visibility: missing
Ceiling: unknown
Clouds: missing
Weather: TS  (thunderstorm)